Terminal Aerodrome Forecast
Issued by NWS

Home | Current Version | Previous Version | Text Only | Print | Product List | Glossary Off
Versions: 1 2 3 4 5 6 7 8 9 10 11 12 13 14 15 16 17 18

391
FTUS43 KGRB 240048 AAA
TAFAUW
TAF AMD
KAUW 240048Z 2401/2424 15009G16KT P6SM VCTS OVC030CB WS018/19040KT
     FM240200 14010KT P6SM VCSH OVC030 WS018/19040KT
      TEMPO 2402/2404 5SM -SHRA BR OVC020
     FM240400 14006KT 4SM RA BR OVC017 WS018/23040KT
     FM240800 VRB03KT 2SM RA BR OVC007
     FM241400 04005KT 2SM RA BR OVC003
     FM242200 05007KT 4SM -SHRA BR OVC007=

USA.gov is the U.S. government's official web portal to all federal, state and local government web resources and services.